Time,TemperatureF,DewpointF,PressureIn,WindDirection,WindDirectionDegrees,WindSpeedMPH,WindSpeedGustMPH,Humidity,HourlyPrecipIn,Conditions,Clouds,dailyrainin,SoftwareType,DateUTC
2013-03-06 00:00:00,29.6,27.6,30.13,ESE,105,0.0,0.0,92,0.00,,,0.07,VWS V14.01,2013-03-06 05:00:00,
2013-03-06 00:05:00,29.7,27.7,30.13,ESE,105,0.0,0.0,92,0.00,,,0.00,VWS V14.01,2013-03-06 05:05:00,
2013-03-06 00:10:00,29.8,27.8,30.13,ESE,105,0.0,0.0,92,0.00,,,0.00,VWS V14.01,2013-03-06 05:10:00,
2013-03-06 00:15:00,29.9,27.6,30.13,ESE,105,0.0,0.0,91,0.00,,,0.00,VWS V14.01,2013-03-06 05:15:00,
2013-03-06 00:20:00,29.9,27.9,30.13,ESE,105,0.0,0.0,92,0.00,,,0.00,VWS V14.01,2013-03-06 05:20:00,
2013-03-06 00:25:00,29.9,27.6,30.13,ESE,105,0.0,0.0,91,0.00,,,0.00,VWS V14.01,2013-03-06 05:25:00,
2013-03-06 00:30:00,29.9,27.6,30.13,ESE,105,0.0,0.0,91,0.00,,,0.00,VWS V14.01,2013-03-06 05:30:00,
2013-03-06 00:35:00,29.9,27.6,30.13,ESE,105,0.0,0.0,91,0.00,,,0.00,VWS V14.01,2013-03-06 05:35:00,
2013-03-06 00:40:00,29.9,27.6,30.13,ESE,105,0.0,0.0,91,0.00,,,0.00,VWS V14.01,2013-03-06 05:40:00,
2013-03-06 00:45:00,29.9,27.6,30.13,ESE,105,0.0,0.0,91,0.00,,,0.00,VWS V14.01,2013-03-06 05:45:00,
2013-03-06 00:50:00,29.9,27.6,30.13,ESE,105,0.0,0.0,91,0.00,,,0.00,VWS V14.01,2013-03-06 05:50:00,
2013-03-06 00:55:00,29.8,27.5,30.13,ESE,105,0.0,0.0,91,0.00,,,0.00,VWS V14.01,2013-03-06 05:55:00,
2013-03-06 01:00:00,29.9,27.9,30.13,ESE,105,0.0,1.0,92,0.00,,,0.00,VWS V14.01,2013-03-06 06:00:00,
2013-03-06 01:05:00,30.0,27.7,30.14,ESE,105,0.0,0.0,91,0.00,,,0.00,VWS V14.01,2013-03-06 06:05:00,
2013-03-06 01:10:00,30.1,28.1,30.13,ESE,105,0.0,0.0,92,0.00,,,0.00,VWS V14.01,2013-03-06 06:10:00,
2013-03-06 01:15:00,30.1,28.1,30.14,ESE,105,0.0,0.0,92,0.00,,,0.00,VWS V14.01,2013-03-06 06:15:00,
2013-03-06 01:20:00,30.1,28.1,30.13,ESE,105,0.0,0.0,92,0.00,,,0.00,VWS V14.01,2013-03-06 06:20:00,
2013-03-06 01:25:00,30.1,28.1,30.13,ESE,105,0.0,0.0,92,0.00,,,0.00,VWS V14.01,2013-03-06 06:25:00,
2013-03-06 01:30:00,30.1,28.1,30.13,ESE,105,0.0,1.0,92,0.00,,,0.00,VWS V14.01,2013-03-06 06:30:00,
2013-03-06 01:35:00,30.1,28.1,30.14,ESE,105,0.0,0.0,92,0.00,,,0.00,VWS V14.01,2013-03-06 06:35:00,
2013-03-06 01:40:00,30.1,28.1,30.13,ESE,105,0.0,0.0,92,0.00,,,0.00,VWS V14.01,2013-03-06 06:40:00,
2013-03-06 01:45:00,30.1,28.1,30.13,ESE,105,0.0,0.0,92,0.00,,,0.00,VWS V14.01,2013-03-06 06:45:00,
2013-03-06 01:50:00,30.1,28.1,30.13,ESE,105,0.0,0.0,92,0.00,,,0.00,VWS V14.01,2013-03-06 06:50:00,
2013-03-06 01:55:00,30.2,28.2,30.13,East,97,0.0,0.0,92,0.00,,,0.00,VWS V14.01,2013-03-06 06:55:00,
2013-03-06 02:00:00,30.3,28.3,30.13,East,97,0.0,2.0,92,0.00,,,0.00,VWS V14.01,2013-03-06 07:00:00,
2013-03-06 02:05:00,30.4,28.4,30.13,East,97,0.0,0.0,92,0.00,,,0.00,VWS V14.01,2013-03-06 07:05:00,
2013-03-06 02:10:00,30.5,28.5,30.13,East,97,0.0,0.0,92,0.00,,,0.00,VWS V14.01,2013-03-06 07:10:00,
2013-03-06 02:15:00,30.4,28.4,30.13,East,97,0.0,0.0,92,0.00,,,0.00,VWS V14.01,2013-03-06 07:15:00,
2013-03-06 02:20:00,30.3,28.3,30.13,East,97,0.0,0.0,92,0.00,,,0.00,VWS V14.01,2013-03-06 07:20:00,
2013-03-06 02:25:00,30.3,28.3,30.13,East,97,0.0,0.0,92,0.00,,,0.00,VWS V14.01,2013-03-06 07:25:00,
2013-03-06 02:30:00,30.2,28.2,30.12,East,97,0.0,0.0,92,0.00,,,0.00,VWS V14.01,2013-03-06 07:30:00,
2013-03-06 02:35:00,30.3,28.3,30.12,East,97,0.0,0.0,92,0.00,,,0.00,VWS V14.01,2013-03-06 07:35:00,
2013-03-06 02:40:00,30.3,28.3,30.12,East,97,1.0,2.0,92,0.00,,,0.00,VWS V14.01,2013-03-06 07:40:00,
2013-03-06 02:45:00,30.3,28.3,30.12,East,97,0.0,0.0,92,0.00,,,0.00,VWS V14.01,2013-03-06 07:45:00,
2013-03-06 02:50:00,30.4,28.4,30.12,East,97,0.0,0.0,92,0.00,,,0.00,VWS V14.01,2013-03-06 07:50:00,
2013-03-06 02:55:00,30.4,28.4,30.12,East,97,0.0,0.0,92,0.00,,,0.00,VWS V14.01,2013-03-06 07:55:00,
2013-03-06 03:00:00,30.4,28.4,30.12,East,97,0.0,1.0,92,0.00,,,0.00,VWS V14.01,2013-03-06 08:00:00,
2013-03-06 03:05:00,30.4,28.4,30.12,East,97,0.0,0.0,92,0.00,,,0.00,VWS V14.01,2013-03-06 08:05:00,
2013-03-06 03:10:00,30.3,28.0,30.12,East,97,0.0,0.0,91,0.00,,,0.00,VWS V14.01,2013-03-06 08:10:00,
2013-03-06 03:15:00,30.2,28.2,30.12,East,97,0.0,0.0,92,0.00,,,0.00,VWS V14.01,2013-03-06 08:15:00,
2013-03-06 03:20:00,30.0,27.7,30.12,East,97,0.0,0.0,91,0.00,,,0.00,VWS V14.01,2013-03-06 08:20:00,
2013-03-06 03:25:00,29.9,27.9,30.12,East,97,0.0,0.0,92,0.00,,,0.00,VWS V14.01,2013-03-06 08:25:00,
2013-03-06 03:30:00,30.0,28.0,30.12,NE,51,0.0,2.0,92,0.00,,,0.00,VWS V14.01,2013-03-06 08:30:00,
2013-03-06 03:35:00,30.1,28.3,30.12,NE,51,0.0,0.0,93,0.00,,,0.00,VWS V14.01,2013-03-06 08:35:00,
2013-03-06 03:40:00,30.1,28.3,30.12,ENE,59,0.0,2.0,93,0.00,,,0.00,VWS V14.01,2013-03-06 08:40:00,
2013-03-06 03:45:00,30.2,28.4,30.12,SW,218,0.0,0.0,93,0.00,,,0.00,VWS V14.01,2013-03-06 08:45:00,
2013-03-06 03:50:00,30.5,28.7,30.12,ENE,63,0.0,4.0,93,0.00,,,0.00,VWS V14.01,2013-03-06 08:50:00,
2013-03-06 03:55:00,30.5,28.5,30.13,ENE,67,0.0,2.0,92,0.00,,,0.00,VWS V14.01,2013-03-06 08:55:00,
2013-03-06 04:00:00,30.3,28.3,30.13,SSE,155,0.0,2.0,92,0.00,,,0.00,VWS V14.01,2013-03-06 09:00:00,
2013-03-06 04:05:00,30.1,28.1,30.13,SSE,155,1.0,1.0,92,0.00,,,0.00,VWS V14.01,2013-03-06 09:05:00,
2013-03-06 04:10:00,30.1,28.3,30.13,SE,126,0.0,5.0,93,0.00,,,0.00,VWS V14.01,2013-03-06 09:10:00,
2013-03-06 04:15:00,30.2,28.4,30.13,ESE,115,2.0,4.0,93,0.00,,,0.00,VWS V14.01,2013-03-06 09:15:00,
2013-03-06 04:20:00,30.6,28.8,30.13,ENE,67,0.0,6.0,93,0.00,,,0.00,VWS V14.01,2013-03-06 09:20:00,
2013-03-06 04:25:00,30.8,28.8,30.13,ESE,107,0.0,0.0,92,0.00,,,0.00,VWS V14.01,2013-03-06 09:25:00,
2013-03-06 04:30:00,31.0,29.0,30.13,SE,138,0.0,6.0,92,0.00,,,0.00,VWS V14.01,2013-03-06 09:30:00,
2013-03-06 04:35:00,31.0,28.7,30.13,NNW,343,0.0,1.0,91,0.00,,,0.00,VWS V14.01,2013-03-06 09:35:00,
2013-03-06 04:40:00,31.0,28.7,30.13,SE,128,0.0,5.0,91,0.00,,,0.00,VWS V14.01,2013-03-06 09:40:00,
2013-03-06 04:45:00,30.9,28.6,30.13,ENE,74,0.0,0.0,91,0.00,,,0.00,VWS V14.01,2013-03-06 09:45:00,
2013-03-06 04:50:00,30.9,28.6,30.14,ENE,74,0.0,2.0,91,0.00,,,0.00,VWS V14.01,2013-03-06 09:50:00,
2013-03-06 04:55:00,31.0,28.7,30.14,SSW,209,0.0,0.0,91,0.00,,,0.00,VWS V14.01,2013-03-06 09:55:00,
2013-03-06 05:00:00,31.0,28.7,30.14,SE,125,0.0,4.0,91,0.00,,,0.00,VWS V14.01,2013-03-06 10:00:00,
2013-03-06 05:05:00,31.1,28.8,30.14,ENE,68,0.0,1.0,91,0.00,,,0.00,VWS V14.01,2013-03-06 10:05:00,
2013-03-06 05:10:00,31.2,28.9,30.14,East,97,0.0,4.0,91,0.00,,,0.00,VWS V14.01,2013-03-06 10:10:00,
2013-03-06 05:15:00,31.3,28.7,30.14,ENE,76,0.0,0.0,90,0.00,,,0.00,VWS V14.01,2013-03-06 10:15:00,
2013-03-06 05:20:00,31.4,28.8,30.14,North,355,0.0,4.0,90,0.00,,,0.00,VWS V14.01,2013-03-06 10:20:00,
2013-03-06 05:25:00,31.4,28.8,30.14,ENE,66,0.0,0.0,90,0.00,,,0.00,VWS V14.01,2013-03-06 10:25:00,
2013-03-06 05:30:00,31.3,28.7,30.14,East,95,0.0,2.0,90,0.00,,,0.00,VWS V14.01,2013-03-06 10:30:00,
2013-03-06 05:35:00,31.3,28.7,30.14,East,94,0.0,0.0,90,0.00,,,0.00,VWS V14.01,2013-03-06 10:35:00,
2013-03-06 05:40:00,31.3,28.7,30.14,ENE,59,0.0,3.0,90,0.00,,,0.00,VWS V14.01,2013-03-06 10:40:00,
2013-03-06 05:45:00,31.2,28.6,30.14,NW,321,2.0,2.0,90,0.00,,,0.00,VWS V14.01,2013-03-06 10:45:00,
2013-03-06 05:50:00,31.2,28.6,30.14,North,355,0.0,10.0,90,0.00,,,0.00,VWS V14.01,2013-03-06 10:50:00,
2013-03-06 05:55:00,31.2,28.6,30.15,North,5,0.0,0.0,90,0.00,,,0.00,VWS V14.01,2013-03-06 10:55:00,
2013-03-06 06:00:00,31.2,28.3,30.14,NE,52,0.0,5.0,89,0.00,,,0.00,VWS V14.01,2013-03-06 11:00:00,
2013-03-06 06:05:00,31.3,28.4,30.15,ENE,68,0.0,0.0,89,0.00,,,0.00,VWS V14.01,2013-03-06 11:05:00,
2013-03-06 06:10:00,31.4,28.5,30.15,NE,52,0.0,4.0,89,0.00,,,0.00,VWS V14.01,2013-03-06 11:10:00,
2013-03-06 06:15:00,31.3,28.4,30.15,ENE,73,1.0,1.0,89,0.00,,,0.00,VWS V14.01,2013-03-06 11:15:00,
2013-03-06 06:20:00,31.4,28.5,30.15,NE,53,0.0,5.0,89,0.00,,,0.00,VWS V14.01,2013-03-06 11:20:00,
2013-03-06 06:25:00,31.4,28.3,30.15,NE,53,0.0,0.0,88,0.00,,,0.00,VWS V14.01,2013-03-06 11:25:00,
2013-03-06 06:30:00,31.3,28.4,30.15,NE,45,0.0,1.0,89,0.00,,,0.00,VWS V14.01,2013-03-06 11:30:00,
2013-03-06 06:35:00,31.2,28.3,30.16,NNW,342,0.0,0.0,89,0.00,,,0.00,VWS V14.01,2013-03-06 11:35:00,
2013-03-06 06:40:00,31.2,28.3,30.16,NE,35,0.0,3.0,89,0.00,,,0.00,VWS V14.01,2013-03-06 11:40:00,
2013-03-06 06:45:00,31.1,28.2,30.16,NE,36,0.0,0.0,89,0.00,,,0.00,VWS V14.01,2013-03-06 11:45:00,
2013-03-06 06:50:00,31.1,28.2,30.16,NE,35,0.0,0.0,89,0.00,,,0.00,VWS V14.01,2013-03-06 11:50:00,
2013-03-06 06:55:00,31.0,28.1,30.16,NE,35,0.0,0.0,89,0.00,,,0.00,VWS V14.01,2013-03-06 11:55:00,
2013-03-06 07:00:00,31.1,28.2,30.17,ENE,57,0.0,2.0,89,0.00,,,0.00,VWS V14.01,2013-03-06 12:00:00,
2013-03-06 07:05:00,31.1,28.2,30.17,NNW,340,1.0,2.0,89,0.00,,,0.00,VWS V14.01,2013-03-06 12:05:00,
2013-03-06 07:10:00,31.2,28.3,30.17,NE,50,0.0,3.0,89,0.00,,,0.00,VWS V14.01,2013-03-06 12:10:00,
2013-03-06 07:15:00,31.3,28.4,30.17,NNE,17,0.0,0.0,89,0.00,,,0.00,VWS V14.01,2013-03-06 12:15:00,
2013-03-06 07:20:00,31.3,28.4,30.17,North,351,0.0,2.0,89,0.00,,,0.00,VWS V14.01,2013-03-06 12:20:00,
2013-03-06 07:25:00,31.4,28.5,30.17,NNW,342,0.0,0.0,89,0.00,,,0.00,VWS V14.01,2013-03-06 12:25:00,
2013-03-06 07:30:00,31.4,28.5,30.17,North,360,1.0,2.0,89,0.00,,,0.00,VWS V14.01,2013-03-06 12:30:00,
2013-03-06 07:35:00,31.5,28.4,30.17,NNE,18,1.0,2.0,88,0.00,,,0.00,VWS V14.01,2013-03-06 12:35:00,
2013-03-06 07:40:00,31.7,28.6,30.17,North,5,0.0,6.0,88,0.00,,,0.00,VWS V14.01,2013-03-06 12:40:00,
2013-03-06 07:45:00,31.8,28.7,30.17,NNW,340,0.0,1.0,88,0.00,,,0.00,VWS V14.01,2013-03-06 12:45:00,
2013-03-06 07:50:00,31.9,28.8,30.17,North,5,0.0,4.0,88,0.00,,,0.00,VWS V14.01,2013-03-06 12:50:00,
2013-03-06 07:55:00,32.1,28.7,30.17,NNE,21,2.0,3.0,87,0.00,,,0.00,VWS V14.01,2013-03-06 12:55:00,
2013-03-06 08:00:00,32.4,28.7,30.17,ENE,66,3.0,8.0,86,0.00,,,0.00,VWS V14.01,2013-03-06 13:00:00,
2013-03-06 08:05:00,32.4,28.7,30.18,East,87,0.0,0.0,86,0.00,,,0.00,VWS V14.01,2013-03-06 13:05:00,
2013-03-06 08:10:00,32.5,28.8,30.18,SE,126,1.0,8.0,86,0.00,,,0.00,VWS V14.01,2013-03-06 13:10:00,
2013-03-06 08:15:00,32.6,28.6,30.18,ENE,62,7.0,8.0,85,0.00,,,0.00,VWS V14.01,2013-03-06 13:15:00,
2013-03-06 08:20:00,32.9,28.6,30.17,NNW,331,3.0,10.0,84,0.00,,,0.00,VWS V14.01,2013-03-06 13:20:00,
2013-03-06 08:25:00,33.0,28.7,30.18,NE,53,1.0,1.0,84,0.00,,,0.00,VWS V14.01,2013-03-06 13:25:00,
2013-03-06 08:30:00,33.1,28.8,30.18,ENE,64,5.0,8.0,84,0.00,,,0.00,VWS V14.01,2013-03-06 13:30:00,
2013-03-06 08:35:00,33.3,28.7,30.18,NNE,13,0.0,2.0,83,0.00,,,0.00,VWS V14.01,2013-03-06 13:35:00,
2013-03-06 08:40:00,33.4,28.8,30.18,ENE,63,0.0,10.0,83,0.00,,,0.00,VWS V14.01,2013-03-06 13:40:00,
2013-03-06 08:45:00,33.6,28.7,30.18,ENE,77,5.0,5.0,82,0.00,,,0.00,VWS V14.01,2013-03-06 13:45:00,
2013-03-06 08:50:00,33.7,28.8,30.18,North,360,0.0,6.0,82,0.00,,,0.00,VWS V14.01,2013-03-06 13:50:00,
2013-03-06 08:55:00,33.8,28.9,30.19,NNE,30,6.0,10.0,82,0.00,,,0.00,VWS V14.01,2013-03-06 13:55:00,
2013-03-06 09:00:00,33.9,29.0,30.19,East,95,2.0,10.0,82,0.00,,,0.00,VWS V14.01,2013-03-06 14:00:00,
2013-03-06 09:05:00,34.0,28.8,30.19,NE,44,3.0,7.0,81,0.00,,,0.00,VWS V14.01,2013-03-06 14:05:00,
2013-03-06 09:10:00,34.2,29.0,30.19,NE,40,0.0,7.0,81,0.00,,,0.00,VWS V14.01,2013-03-06 14:10:00,
2013-03-06 09:15:00,34.4,28.9,30.19,NNE,17,2.0,3.0,80,0.00,,,0.00,VWS V14.01,2013-03-06 14:15:00,
2013-03-06 09:20:00,34.7,28.9,30.19,NE,43,0.0,6.0,79,0.00,,,0.00,VWS V14.01,2013-03-06 14:20:00,
2013-03-06 09:25:00,34.9,29.1,30.19,NE,34,3.0,6.0,79,0.00,,,0.00,VWS V14.01,2013-03-06 14:25:00,
2013-03-06 09:30:00,34.8,29.0,30.19,NNE,28,3.0,14.0,79,0.00,,,0.00,VWS V14.01,2013-03-06 14:30:00,
2013-03-06 09:35:00,34.8,28.6,30.19,East,94,1.0,6.0,78,0.00,,,0.00,VWS V14.01,2013-03-06 14:35:00,
2013-03-06 09:40:00,34.8,28.6,30.19,East,90,5.0,9.0,78,0.00,,,0.00,VWS V14.01,2013-03-06 14:40:00,
2013-03-06 09:45:00,34.8,28.6,30.19,ESE,103,2.0,6.0,78,0.00,,,0.00,VWS V14.01,2013-03-06 14:45:00,
2013-03-06 09:50:00,35.0,28.5,30.19,ESE,107,0.0,12.0,77,0.00,,,0.00,VWS V14.01,2013-03-06 14:50:00,
2013-03-06 09:55:00,35.3,29.1,30.19,North,360,5.0,8.0,78,0.00,,,0.00,VWS V14.01,2013-03-06 14:55:00,
2013-03-06 10:00:00,35.7,29.2,30.19,NE,56,0.0,8.0,77,0.00,,,0.00,VWS V14.01,2013-03-06 15:00:00,
2013-03-06 10:05:00,36.0,29.5,30.19,NE,42,1.0,5.0,77,0.00,,,0.00,VWS V14.01,2013-03-06 15:05:00,
2013-03-06 10:10:00,36.3,29.5,30.18,North,355,3.0,7.0,76,0.00,,,0.00,VWS V14.01,2013-03-06 15:10:00,
2013-03-06 10:15:00,36.5,29.3,30.18,ENE,73,5.0,7.0,75,0.01,,,0.01,VWS V14.01,2013-03-06 15:15:00,
2013-03-06 10:20:00,36.7,29.5,30.18,ENE,75,0.0,7.0,75,0.01,,,0.01,VWS V14.01,2013-03-06 15:20:00,
2013-03-06 10:25:00,37.3,29.5,30.18,East,79,0.0,0.0,73,0.01,,,0.01,VWS V14.01,2013-03-06 15:25:00,
2013-03-06 10:30:00,37.5,29.3,30.18,ENE,60,0.0,9.0,72,0.01,,,0.01,VWS V14.01,2013-03-06 15:30:00,
2013-03-06 10:35:00,37.6,29.7,30.18,SSW,204,0.0,3.0,73,0.01,,,0.01,VWS V14.01,2013-03-06 15:35:00,
2013-03-06 10:40:00,37.2,28.7,30.18,NE,44,5.0,8.0,71,0.01,,,0.01,VWS V14.01,2013-03-06 15:40:00,
2013-03-06 10:45:00,37.0,28.5,30.18,East,92,5.0,9.0,71,0.01,,,0.01,VWS V14.01,2013-03-06 15:45:00,
2013-03-06 10:50:00,36.7,28.5,30.18,SE,145,0.0,9.0,72,0.01,,,0.01,VWS V14.01,2013-03-06 15:50:00,
2013-03-06 10:55:00,36.5,28.7,30.18,ESE,110,4.0,7.0,73,0.01,,,0.01,VWS V14.01,2013-03-06 15:55:00,
2013-03-06 11:00:00,36.3,28.5,30.18,NE,55,0.0,7.0,73,0.01,,,0.01,VWS V14.01,2013-03-06 16:00:00,
2013-03-06 11:05:00,36.1,28.3,30.18,ENE,76,1.0,1.0,73,0.01,,,0.01,VWS V14.01,2013-03-06 16:05:00,
2013-03-06 11:10:00,36.1,28.0,30.18,ESE,105,6.0,8.0,72,0.01,,,0.01,VWS V14.01,2013-03-06 16:10:00,
2013-03-06 11:15:00,36.1,28.0,30.19,NE,56,0.0,3.0,72,0.00,,,0.01,VWS V14.01,2013-03-06 16:15:00,
2013-03-06 11:20:00,36.2,27.7,30.19,ESE,102,5.0,7.0,71,0.00,,,0.01,VWS V14.01,2013-03-06 16:20:00,
2013-03-06 11:25:00,36.1,27.6,30.19,SE,128,2.0,10.0,71,0.00,,,0.01,VWS V14.01,2013-03-06 16:25:00,
2013-03-06 11:30:00,36.0,27.5,30.19,South,188,5.0,10.0,71,0.00,,,0.01,VWS V14.01,2013-03-06 16:30:00,
2013-03-06 11:35:00,35.9,27.4,30.19,SE,136,0.0,5.0,71,0.00,,,0.01,VWS V14.01,2013-03-06 16:35:00,
2013-03-06 11:40:00,35.9,27.4,30.19,ENE,71,1.0,7.0,71,0.00,,,0.01,VWS V14.01,2013-03-06 16:40:00,
2013-03-06 11:45:00,35.6,26.8,30.19,NE,45,1.0,6.0,70,0.01,,,0.02,VWS V14.01,2013-03-06 16:45:00,
2013-03-06 11:50:00,35.5,27.4,30.19,North,360,2.0,8.0,72,0.01,,,0.02,VWS V14.01,2013-03-06 16:50:00,
2013-03-06 11:55:00,35.4,27.0,30.19,ESE,105,5.0,6.0,71,0.01,,,0.02,VWS V14.01,2013-03-06 16:55:00,
2013-03-06 12:00:00,35.4,27.3,30.19,East,94,0.0,7.0,72,0.01,,,0.02,VWS V14.01,2013-03-06 17:00:00,
2013-03-06 12:05:00,35.5,27.0,30.19,NE,39,0.0,0.0,71,0.01,,,0.02,VWS V14.01,2013-03-06 17:05:00,
2013-03-06 12:10:00,35.5,27.0,30.19,SE,146,7.0,7.0,71,0.01,,,0.02,VWS V14.01,2013-03-06 17:10:00,
2013-03-06 12:15:00,35.5,26.4,30.19,ENE,75,3.0,3.0,69,0.01,,,0.02,VWS V14.01,2013-03-06 17:15:00,
2013-03-06 12:20:00,35.7,26.2,30.19,NNE,22,0.0,10.0,68,0.01,,,0.02,VWS V14.01,2013-03-06 17:20:00,
2013-03-06 12:25:00,36.1,26.9,30.18,North,5,0.0,0.0,69,0.01,,,0.02,VWS V14.01,2013-03-06 17:25:00,
2013-03-06 12:30:00,36.8,27.2,30.18,NW,315,4.0,8.0,68,0.01,,,0.02,VWS V14.01,2013-03-06 17:30:00,
2013-03-06 12:35:00,37.3,27.0,30.18,NE,34,1.0,4.0,66,0.01,,,0.02,VWS V14.01,2013-03-06 17:35:00,
2013-03-06 12:40:00,37.5,26.8,30.18,NE,36,6.0,11.0,65,0.02,,,0.03,VWS V14.01,2013-03-06 17:40:00,
2013-03-06 12:45:00,37.0,26.0,30.18,NNE,33,4.0,4.0,64,0.01,,,0.03,VWS V14.01,2013-03-06 17:45:00,
2013-03-06 12:50:00,36.8,25.8,30.18,ENE,61,4.0,10.0,64,0.01,,,0.03,VWS V14.01,2013-03-06 17:50:00,
2013-03-06 12:55:00,36.8,26.5,30.18,ENE,59,3.0,4.0,66,0.01,,,0.03,VWS V14.01,2013-03-06 17:55:00,
2013-03-06 13:00:00,36.9,25.9,30.17,NNE,26,4.0,12.0,64,0.01,,,0.03,VWS V14.01,2013-03-06 18:00:00,
2013-03-06 13:05:00,36.5,25.5,30.17,NE,41,3.0,3.0,64,0.01,,,0.03,VWS V14.01,2013-03-06 18:05:00,
2013-03-06 13:10:00,36.3,25.3,30.17,East,81,5.0,15.0,64,0.01,,,0.03,VWS V14.01,2013-03-06 18:10:00,
2013-03-06 13:15:00,36.1,24.7,30.17,East,79,4.0,10.0,63,0.01,,,0.03,VWS V14.01,2013-03-06 18:15:00,
2013-03-06 13:20:00,36.2,25.2,30.17,NNE,25,0.0,13.0,64,0.01,,,0.03,VWS V14.01,2013-03-06 18:20:00,
2013-03-06 13:25:00,36.2,24.8,30.17,ENE,72,0.0,2.0,63,0.01,,,0.03,VWS V14.01,2013-03-06 18:25:00,
2013-03-06 13:30:00,36.1,25.1,30.17,NW,323,3.0,13.0,64,0.01,,,0.03,VWS V14.01,2013-03-06 18:30:00,
2013-03-06 13:35:00,36.0,25.0,30.18,NE,49,4.0,4.0,64,0.01,,,0.03,VWS V14.01,2013-03-06 18:35:00,
2013-03-06 13:40:00,35.7,25.1,30.18,SE,126,2.0,12.0,65,0.01,,,0.03,VWS V14.01,2013-03-06 18:40:00,
2013-03-06 13:45:00,35.4,24.8,30.17,SE,129,15.0,15.0,65,0.00,,,0.03,VWS V14.01,2013-03-06 18:45:00,
2013-03-06 13:50:00,35.1,24.5,30.18,NE,53,2.0,15.0,65,0.00,,,0.03,VWS V14.01,2013-03-06 18:50:00,
2013-03-06 13:55:00,35.0,24.8,30.18,SSE,159,0.0,2.0,66,0.00,,,0.03,VWS V14.01,2013-03-06 18:55:00,
2013-03-06 14:00:00,34.8,24.2,30.18,East,84,3.0,13.0,65,0.00,,,0.03,VWS V14.01,2013-03-06 19:00:00,
2013-03-06 14:05:00,34.7,24.5,30.18,ESE,105,0.0,1.0,66,0.00,,,0.03,VWS V14.01,2013-03-06 19:05:00,
2013-03-06 14:10:00,34.6,24.4,30.18,ENE,61,2.0,8.0,66,0.00,,,0.03,VWS V14.01,2013-03-06 19:10:00,
2013-03-06 14:15:00,34.5,24.7,30.18,NE,55,11.0,11.0,67,0.00,,,0.03,VWS V14.01,2013-03-06 19:15:00,
2013-03-06 14:20:00,34.4,24.6,30.18,NE,51,3.0,11.0,67,0.00,,,0.03,VWS V14.01,2013-03-06 19:20:00,
2013-03-06 14:25:00,34.3,24.5,30.19,NNE,23,0.0,0.0,67,0.00,,,0.03,VWS V14.01,2013-03-06 19:25:00,
2013-03-06 14:30:00,34.3,24.5,30.19,ENE,77,2.0,6.0,67,0.00,,,0.03,VWS V14.01,2013-03-06 19:30:00,
2013-03-06 14:35:00,34.4,24.6,30.18,NE,41,4.0,4.0,67,0.00,,,0.03,VWS V14.01,2013-03-06 19:35:00,
2013-03-06 14:40:00,34.6,25.5,30.19,East,89,0.0,10.0,69,0.00,,,0.03,VWS V14.01,2013-03-06 19:40:00,
2013-03-06 14:45:00,34.8,25.3,30.19,NNE,32,2.0,2.0,68,0.00,,,0.03,VWS V14.01,2013-03-06 19:45:00,
2013-03-06 14:50:00,35.0,26.2,30.19,East,87,0.0,4.0,70,0.00,,,0.03,VWS V14.01,2013-03-06 19:50:00,
2013-03-06 14:55:00,35.0,25.9,30.19,ENE,71,3.0,5.0,69,0.00,,,0.03,VWS V14.01,2013-03-06 19:55:00,
2013-03-06 15:00:00,34.9,25.4,30.19,NE,34,4.0,5.0,68,0.00,,,0.03,VWS V14.01,2013-03-06 20:00:00,
2013-03-06 15:05:00,34.8,25.3,30.19,South,191,0.0,1.0,68,0.00,,,0.03,VWS V14.01,2013-03-06 20:05:00,
2013-03-06 15:10:00,34.6,24.4,30.19,NE,45,0.0,5.0,66,0.00,,,0.03,VWS V14.01,2013-03-06 20:10:00,
2013-03-06 15:15:00,34.6,24.8,30.19,NE,42,0.0,1.0,67,0.00,,,0.03,VWS V14.01,2013-03-06 20:15:00,
2013-03-06 15:20:00,34.7,24.5,30.19,NNE,28,0.0,3.0,66,0.00,,,0.03,VWS V14.01,2013-03-06 20:20:00,
2013-03-06 15:25:00,34.9,24.7,30.19,NE,51,2.0,2.0,66,0.00,,,0.03,VWS V14.01,2013-03-06 20:25:00,
2013-03-06 15:30:00,35.0,24.4,30.19,East,89,0.0,5.0,65,0.00,,,0.03,VWS V14.01,2013-03-06 20:30:00,
2013-03-06 15:35:00,34.9,24.7,30.19,ENE,59,3.0,4.0,66,0.01,,,0.04,VWS V14.01,2013-03-06 20:35:00,
2013-03-06 15:40:00,34.8,24.2,30.19,NE,34,0.0,6.0,65,0.01,,,0.04,VWS V14.01,2013-03-06 20:40:00,
2013-03-06 15:45:00,34.8,24.6,30.19,ENE,65,0.0,0.0,66,0.01,,,0.04,VWS V14.01,2013-03-06 20:45:00,
2013-03-06 15:50:00,34.8,23.9,30.19,ENE,57,0.0,6.0,64,0.01,,,0.04,VWS V14.01,2013-03-06 20:50:00,
2013-03-06 15:55:00,34.8,24.6,30.19,SE,133,0.0,0.0,66,0.01,,,0.04,VWS V14.01,2013-03-06 20:55:00,
2013-03-06 16:00:00,34.8,24.6,30.19,SSE,167,1.0,1.0,66,0.01,,,0.04,VWS V14.01,2013-03-06 21:00:00,
2013-03-06 16:05:00,34.8,25.3,30.19,ESE,106,0.0,2.0,68,0.01,,,0.04,VWS V14.01,2013-03-06 21:05:00,
2013-03-06 16:10:00,34.8,24.6,30.19,ENE,62,0.0,2.0,66,0.01,,,0.04,VWS V14.01,2013-03-06 21:10:00,
2013-03-06 16:15:00,34.8,24.2,30.19,SE,138,0.0,5.0,65,0.01,,,0.04,VWS V14.01,2013-03-06 21:15:00,
2013-03-06 16:20:00,34.8,24.2,30.19,NE,56,0.0,5.0,65,0.01,,,0.04,VWS V14.01,2013-03-06 21:20:00,
2013-03-06 16:25:00,34.9,25.4,30.19,ENE,60,0.0,0.0,68,0.01,,,0.04,VWS V14.01,2013-03-06 21:25:00,
2013-03-06 16:30:00,34.9,24.3,30.19,ENE,60,0.0,2.0,65,0.01,,,0.04,VWS V14.01,2013-03-06 21:30:00,
2013-03-06 16:35:00,34.9,24.3,30.19,North,355,1.0,3.0,65,0.00,,,0.04,VWS V14.01,2013-03-06 21:35:00,
2013-03-06 16:40:00,34.9,24.7,30.19,ENE,58,3.0,7.0,66,0.00,,,0.04,VWS V14.01,2013-03-06 21:40:00,
2013-03-06 16:45:00,34.8,23.9,30.19,East,84,0.0,0.0,64,0.00,,,0.04,VWS V14.01,2013-03-06 21:45:00,
2013-03-06 16:50:00,34.8,24.6,30.19,East,84,0.0,2.0,66,0.00,,,0.04,VWS V14.01,2013-03-06 21:50:00,
2013-03-06 16:55:00,34.7,24.5,30.19,East,90,1.0,1.0,66,0.00,,,0.04,VWS V14.01,2013-03-06 21:55:00,
2013-03-06 17:00:00,34.7,24.1,30.19,NNW,333,3.0,6.0,65,0.00,,,0.04,VWS V14.01,2013-03-06 22:00:00,
2013-03-06 17:05:00,34.6,24.1,30.19,NE,45,0.0,0.0,65,0.00,,,0.04,VWS V14.01,2013-03-06 22:05:00,
2013-03-06 17:10:00,34.6,24.1,30.19,ENE,74,0.0,8.0,65,0.00,,,0.04,VWS V14.01,2013-03-06 22:10:00,
2013-03-06 17:15:00,34.5,24.3,30.19,East,84,1.0,4.0,66,0.00,,,0.04,VWS V14.01,2013-03-06 22:15:00,
2013-03-06 17:20:00,34.5,24.3,30.19,NNE,18,3.0,7.0,66,0.00,,,0.04,VWS V14.01,2013-03-06 22:20:00,
2013-03-06 17:25:00,34.4,24.6,30.19,East,87,2.0,2.0,67,0.00,,,0.04,VWS V14.01,2013-03-06 22:25:00,
2013-03-06 17:30:00,34.4,24.6,30.19,NE,53,2.0,6.0,67,0.00,,,0.04,VWS V14.01,2013-03-06 22:30:00,
2013-03-06 17:35:00,34.3,24.5,30.19,East,97,2.0,5.0,67,0.00,,,0.04,VWS V14.01,2013-03-06 22:35:00,
2013-03-06 17:40:00,34.3,24.1,30.19,NW,321,1.0,11.0,66,0.00,,,0.04,VWS V14.01,2013-03-06 22:40:00,
2013-03-06 17:45:00,34.2,24.4,30.19,East,87,0.0,0.0,67,0.00,,,0.04,VWS V14.01,2013-03-06 22:45:00,
2013-03-06 17:50:00,34.1,24.3,30.20,SSE,150,2.0,5.0,67,0.00,,,0.04,VWS V14.01,2013-03-06 22:50:00,
2013-03-06 17:55:00,34.0,24.6,30.20,ESE,120,0.0,0.0,68,0.00,,,0.04,VWS V14.01,2013-03-06 22:55:00,
2013-03-06 18:00:00,33.9,24.5,30.20,SSE,167,0.0,5.0,68,0.00,,,0.04,VWS V14.01,2013-03-06 23:00:00,
2013-03-06 18:05:00,33.8,24.4,30.20,SW,223,0.0,1.0,68,0.00,,,0.04,VWS V14.01,2013-03-06 23:05:00,
2013-03-06 18:10:00,33.7,24.6,30.20,NNE,33,0.0,6.0,69,0.00,,,0.04,VWS V14.01,2013-03-06 23:10:00,
2013-03-06 18:15:00,33.7,24.3,30.21,ENE,71,10.0,10.0,68,0.00,,,0.04,VWS V14.01,2013-03-06 23:15:00,
2013-03-06 18:20:00,33.7,24.3,30.21,NNE,17,0.0,10.0,68,0.00,,,0.04,VWS V14.01,2013-03-06 23:20:00,
2013-03-06 18:25:00,33.7,24.3,30.21,NNE,14,3.0,9.0,68,0.00,,,0.04,VWS V14.01,2013-03-06 23:25:00,
2013-03-06 18:30:00,33.6,24.2,30.20,North,5,0.0,9.0,68,0.00,,,0.04,VWS V14.01,2013-03-06 23:30:00,
2013-03-06 18:35:00,33.5,24.4,30.21,NNE,19,1.0,1.0,69,0.00,,,0.04,VWS V14.01,2013-03-06 23:35:00,
2013-03-06 18:40:00,33.5,24.4,30.21,East,96,0.0,7.0,69,0.00,,,0.04,VWS V14.01,2013-03-06 23:40:00,
2013-03-06 18:45:00,33.5,24.8,30.21,NE,43,2.0,3.0,70,0.00,,,0.04,VWS V14.01,2013-03-06 23:45:00,
2013-03-06 18:50:00,33.4,24.7,30.21,NE,42,0.0,6.0,70,0.00,,,0.04,VWS V14.01,2013-03-06 23:50:00,
2013-03-06 18:55:00,33.3,24.6,30.20,NNE,23,0.0,0.0,70,0.00,,,0.04,VWS V14.01,2013-03-06 23:55:00,
2013-03-06 19:00:00,33.2,24.8,30.21,East,85,1.0,4.0,71,0.00,,,0.04,VWS V14.01,2013-03-07 00:00:00,
2013-03-06 19:05:00,33.2,24.8,30.21,NE,41,3.0,3.0,71,0.00,,,0.04,VWS V14.01,2013-03-07 00:05:00,
2013-03-06 19:10:00,33.2,24.5,30.21,ESE,120,0.0,7.0,70,0.00,,,0.04,VWS V14.01,2013-03-07 00:10:00,
2013-03-06 19:15:00,33.1,25.1,30.21,East,96,4.0,4.0,72,0.00,,,0.04,VWS V14.01,2013-03-07 00:15:00,
2013-03-06 19:20:00,33.0,24.6,30.21,ESE,113,2.0,5.0,71,0.00,,,0.04,VWS V14.01,2013-03-07 00:20:00,
2013-03-06 19:25:00,33.0,25.0,30.22,NE,36,0.0,4.0,72,0.00,,,0.04,VWS V14.01,2013-03-07 00:25:00,
2013-03-06 19:30:00,33.0,25.0,30.22,SE,130,0.0,8.0,72,0.00,,,0.04,VWS V14.01,2013-03-07 00:30:00,
2013-03-06 19:35:00,32.9,24.5,30.22,NE,48,3.0,3.0,71,0.00,,,0.04,VWS V14.01,2013-03-07 00:35:00,
2013-03-06 19:40:00,32.9,24.9,30.22,North,355,0.0,8.0,72,0.00,,,0.04,VWS V14.01,2013-03-07 00:40:00,
2013-03-06 19:45:00,32.9,24.9,30.22,NNE,15,7.0,8.0,72,0.00,,,0.04,VWS V14.01,2013-03-07 00:45:00,
2013-03-06 19:50:00,32.8,24.8,30.22,ESE,102,2.0,8.0,72,0.00,,,0.04,VWS V14.01,2013-03-07 00:50:00,
2013-03-06 19:55:00,32.7,24.7,30.21,ENE,67,3.0,7.0,72,0.00,,,0.04,VWS V14.01,2013-03-07 00:55:00,
2013-03-06 20:00:00,32.6,24.9,30.21,ESE,106,0.0,7.0,73,0.00,,,0.04,VWS V14.01,2013-03-07 01:00:00,
2013-03-06 20:05:00,32.5,24.5,30.21,SW,235,0.0,2.0,72,0.00,,,0.04,VWS V14.01,2013-03-07 01:05:00,
2013-03-06 20:10:00,32.4,24.4,30.21,SE,128,2.0,5.0,72,0.00,,,0.04,VWS V14.01,2013-03-07 01:10:00,
2013-03-06 20:15:00,32.4,24.7,30.21,NE,38,3.0,8.0,73,0.00,,,0.04,VWS V14.01,2013-03-07 01:15:00,
2013-03-06 20:20:00,32.3,24.6,30.22,ENE,67,3.0,8.0,73,0.00,,,0.04,VWS V14.01,2013-03-07 01:20:00,
2013-03-06 20:25:00,32.2,24.5,30.21,NE,36,0.0,5.0,73,0.00,,,0.04,VWS V14.01,2013-03-07 01:25:00,
2013-03-06 20:30:00,32.1,25.1,30.21,SSW,202,2.0,6.0,75,0.00,,,0.04,VWS V14.01,2013-03-07 01:30:00,
2013-03-06 20:35:00,32.0,24.7,30.21,NE,55,0.0,3.0,74,0.00,,,0.04,VWS V14.01,2013-03-07 01:35:00,
2013-03-06 20:40:00,31.9,24.9,30.21,East,86,0.0,9.0,75,0.00,,,0.04,VWS V14.01,2013-03-07 01:40:00,
2013-03-06 20:45:00,31.9,24.6,30.21,North,5,1.0,8.0,74,0.00,,,0.04,VWS V14.01,2013-03-07 01:45:00,
2013-03-06 20:50:00,31.8,24.5,30.20,East,98,0.0,8.0,74,0.00,,,0.04,VWS V14.01,2013-03-07 01:50:00,
2013-03-06 20:55:00,31.8,24.8,30.20,ENE,57,1.0,3.0,75,0.00,,,0.04,VWS V14.01,2013-03-07 01:55:00,
2013-03-06 21:00:00,31.7,24.7,30.20,WNW,290,0.0,5.0,75,0.00,,,0.04,VWS V14.01,2013-03-07 02:00:00,
2013-03-06 21:05:00,31.6,24.9,30.20,NE,51,2.0,5.0,76,0.00,,,0.04,VWS V14.01,2013-03-07 02:05:00,
2013-03-06 21:10:00,31.6,24.9,30.20,East,84,0.0,5.0,76,0.00,,,0.04,VWS V14.01,2013-03-07 02:10:00,
2013-03-06 21:15:00,31.5,25.1,30.20,NE,49,0.0,0.0,77,0.00,,,0.04,VWS V14.01,2013-03-07 02:15:00,
2013-03-06 21:20:00,31.4,25.0,30.20,NE,36,0.0,4.0,77,0.00,,,0.04,VWS V14.01,2013-03-07 02:20:00,
2013-03-06 21:25:00,31.4,25.0,30.20,NE,36,0.0,1.0,77,0.00,,,0.04,VWS V14.01,2013-03-07 02:25:00,
2013-03-06 21:30:00,31.3,24.9,30.20,ENE,62,0.0,4.0,77,0.00,,,0.04,VWS V14.01,2013-03-07 02:30:00,
2013-03-06 21:35:00,31.3,24.9,30.20,NNE,31,0.0,0.0,77,0.00,,,0.04,VWS V14.01,2013-03-07 02:35:00,
2013-03-06 21:40:00,31.3,24.9,30.20,NE,55,5.0,7.0,77,0.00,,,0.04,VWS V14.01,2013-03-07 02:40:00,
2013-03-06 21:45:00,31.3,24.9,30.20,NE,36,0.0,1.0,77,0.00,,,0.04,VWS V14.01,2013-03-07 02:45:00,
2013-03-06 21:50:00,31.3,24.9,30.20,ENE,59,0.0,4.0,77,0.00,,,0.04,VWS V14.01,2013-03-07 02:50:00,
2013-03-06 21:55:00,31.2,25.1,30.20,East,91,5.0,7.0,78,0.00,,,0.04,VWS V14.01,2013-03-07 02:55:00,
2013-03-06 22:00:00,31.2,25.1,30.20,NE,54,0.0,7.0,78,0.00,,,0.04,VWS V14.01,2013-03-07 03:00:00,
2013-03-06 22:05:00,31.1,24.8,30.20,NE,40,0.0,0.0,77,0.00,,,0.04,VWS V14.01,2013-03-07 03:05:00,
2013-03-06 22:10:00,31.1,25.0,30.20,ESE,123,0.0,5.0,78,0.00,,,0.04,VWS V14.01,2013-03-07 03:10:00,
2013-03-06 22:15:00,31.1,24.8,30.20,SSE,159,0.0,2.0,77,0.00,,,0.04,VWS V14.01,2013-03-07 03:15:00,
2013-03-06 22:20:00,31.1,25.0,30.19,SE,130,0.0,2.0,78,0.00,,,0.04,VWS V14.01,2013-03-07 03:20:00,
2013-03-06 22:25:00,31.0,24.6,30.19,NE,38,1.0,2.0,77,0.00,,,0.04,VWS V14.01,2013-03-07 03:25:00,
2013-03-06 22:30:00,31.0,24.3,30.19,ENE,76,0.0,6.0,76,0.00,,,0.04,VWS V14.01,2013-03-07 03:30:00,
2013-03-06 22:35:00,30.9,24.5,30.19,NE,53,0.0,4.0,77,0.00,,,0.04,VWS V14.01,2013-03-07 03:35:00,
2013-03-06 22:40:00,30.9,24.2,30.19,ENE,61,0.0,6.0,76,0.00,,,0.04,VWS V14.01,2013-03-07 03:40:00,
2013-03-06 22:45:00,30.9,24.5,30.20,NE,40,0.0,0.0,77,0.00,,,0.04,VWS V14.01,2013-03-07 03:45:00,
2013-03-06 22:50:00,30.8,24.5,30.20,East,88,0.0,10.0,77,0.00,,,0.04,VWS V14.01,2013-03-07 03:50:00,
2013-03-06 22:55:00,30.7,24.4,30.20,ENE,57,0.0,1.0,77,0.00,,,0.04,VWS V14.01,2013-03-07 03:55:00,
2013-03-06 23:00:00,30.6,24.6,30.20,ESE,117,0.0,4.0,78,0.00,,,0.04,VWS V14.01,2013-03-07 04:00:00,
2013-03-06 23:05:00,30.4,24.4,30.20,ENE,76,0.0,1.0,78,0.00,,,0.04,VWS V14.01,2013-03-07 04:05:00,
2013-03-06 23:10:00,30.3,24.3,30.20,SSE,158,0.0,3.0,78,0.00,,,0.04,VWS V14.01,2013-03-07 04:10:00,
2013-03-06 23:15:00,30.2,23.9,30.20,ENE,65,2.0,3.0,77,0.00,,,0.04,VWS V14.01,2013-03-07 04:15:00,
2013-03-06 23:20:00,30.1,23.8,30.20,NNE,15,0.0,4.0,77,0.00,,,0.04,VWS V14.01,2013-03-07 04:20:00,
2013-03-06 23:25:00,30.1,23.8,30.20,SE,132,1.0,2.0,77,0.00,,,0.04,VWS V14.01,2013-03-07 04:25:00,
2013-03-06 23:30:00,30.0,24.0,30.20,ESE,113,5.0,6.0,78,0.00,,,0.04,VWS V14.01,2013-03-07 04:30:00,
2013-03-06 23:35:00,29.8,23.8,30.20,SE,132,2.0,2.0,78,0.00,,,0.04,VWS V14.01,2013-03-07 04:35:00,
2013-03-06 23:40:00,29.8,23.8,30.20,SSE,151,0.0,2.0,78,0.00,,,0.04,VWS V14.01,2013-03-07 04:40:00,
2013-03-06 23:45:00,29.7,24.3,30.20,SSE,151,0.0,1.0,80,0.00,,,0.04,VWS V14.01,2013-03-07 04:45:00,
2013-03-06 23:50:00,29.6,23.9,30.20,SE,136,0.0,4.0,79,0.00,,,0.04,VWS V14.01,2013-03-07 04:50:00,
2013-03-06 23:55:00,29.6,23.9,30.19,ESE,103,1.0,2.0,79,0.00,,,0.04,VWS V14.01,2013-03-07 04:55:00,